WiFi CFI 2018-09-12T17:41:25+00:00
WiFiCFI

Axiom Aviaiton has an exclusive partner ship with WifiCFI to provide the ultimate, all inclusive free ground course for any phase of fixed wing training. Wifi CFI is the cutting edge way to study aviation; with pilot shortages on the rise there has never been a better time to take hold of your aviation dreams.

  • Private Pilot

    • 51 course lessons
    • 1,547 powerpoint slides
    • 589 quiz questions
    • 35 hours of instruction
  • Instrument Raiting

    Our instrument lessons are currently under construction, but you can study what’s done so far!

  • Commercial Pilot

    • 55 course lessons
    • 1,611 powerpoint slides
    • 641 quiz questions
    • 35 hours of instruction
  • Multi-Engine Add-on

    • 18 course lessons
    • 385 powerpoint slides
    • 183 quiz questions
    • 9 hours of instruction
  • Flight Instructor

    • 66 course lessons
    • 1,813 powerpoint slides
    • 574 quiz questions
    • 40 hours of instruction
  • CFI Lesson Plans

    • 71 course lesson plans
    • 2,240 powerpoint slides
    • CFI, CFII, and MEI checkrides
    • (CFII coming soon)
WiFiCFI

Current METAR

KOGD 171453Z 29005KT 10SM CLR 12/M03 A3027 RMK AO2 SLP230 T01171028 53005